createdAt,value
2018-06-20T00:03:59.599Z,99.90
2018-06-20T00:08:02.578Z,99.90
2018-06-20T00:12:05.415Z,99.90
2018-06-20T00:16:08.200Z,99.90
2018-06-20T00:20:11.059Z,99.90
2018-06-20T00:24:13.908Z,99.90
2018-06-20T00:28:16.762Z,99.90
2018-06-20T00:32:19.602Z,99.90
2018-06-20T00:36:22.514Z,99.90
2018-06-20T00:40:25.327Z,99.90
2018-06-20T00:44:28.165Z,99.90
2018-06-20T00:48:30.971Z,99.90
2018-06-20T00:52:33.796Z,99.90
2018-06-20T00:56:36.684Z,99.90
2018-06-20T01:00:39.652Z,99.90
2018-06-20T01:04:42.447Z,99.90
2018-06-20T01:08:49.362Z,99.90
2018-06-20T01:12:52.198Z,99.90
2018-06-20T01:16:55.373Z,99.90
2018-06-20T01:20:58.203Z,99.90
2018-06-20T01:25:01.063Z,99.90
2018-06-20T01:29:03.867Z,99.90
2018-06-20T01:33:06.656Z,99.90
2018-06-20T01:37:09.417Z,99.90
2018-06-20T01:41:12.257Z,99.90
2018-06-20T01:45:15.007Z,99.90
2018-06-20T01:49:17.865Z,99.90
2018-06-20T01:53:20.615Z,99.90
2018-06-20T01:57:23.385Z,99.90
2018-06-20T02:01:26.166Z,99.90
2018-06-20T02:05:29.167Z,99.90
2018-06-20T02:09:31.990Z,99.90
2018-06-20T02:13:34.809Z,99.90
2018-06-20T02:17:37.598Z,99.90
2018-06-20T02:21:40.374Z,99.90
2018-06-20T02:25:43.217Z,99.90
2018-06-20T02:29:46.232Z,99.90
2018-06-20T02:33:49.012Z,99.90
2018-06-20T02:37:51.801Z,99.90
2018-06-20T02:41:54.554Z,99.90
2018-06-20T02:45:57.424Z,99.90
2018-06-20T02:50:00.560Z,99.90
2018-06-20T02:54:03.408Z,99.90
2018-06-20T02:58:06.235Z,99.90
2018-06-20T03:02:08.996Z,99.90
2018-06-20T03:06:11.874Z,99.90
2018-06-20T03:10:14.711Z,99.90
2018-06-20T03:14:17.811Z,99.90
2018-06-20T03:18:20.679Z,99.90
2018-06-20T03:22:23.482Z,99.90
2018-06-20T03:26:26.289Z,99.90
2018-06-20T03:30:29.123Z,99.90
2018-06-20T03:34:32.050Z,99.90
2018-06-20T03:38:34.971Z,99.90
2018-06-20T03:42:37.742Z,99.90
2018-06-20T03:46:40.520Z,99.90
2018-06-20T03:50:43.409Z,99.90
2018-06-20T03:54:46.375Z,99.90
2018-06-20T03:58:49.240Z,99.90
2018-06-20T04:02:52.021Z,99.90
2018-06-20T04:06:54.794Z,99.90
2018-06-20T04:10:57.598Z,99.90
2018-06-20T04:15:00.400Z,99.90
2018-06-20T04:19:03.193Z,99.90
2018-06-20T04:23:05.958Z,99.90
2018-06-20T04:31:11.426Z,99.90
2018-06-20T04:35:14.267Z,99.90
2018-06-20T04:39:17.076Z,99.90
2018-06-20T04:43:19.878Z,99.90
2018-06-20T04:47:25.679Z,99.90
2018-06-20T04:51:28.428Z,99.90
2018-06-20T04:55:31.245Z,99.90
2018-06-20T04:59:34.025Z,99.90
2018-06-20T05:03:36.849Z,99.90
2018-06-20T05:07:39.623Z,99.90
2018-06-20T05:11:42.387Z,99.90
2018-06-20T05:15:45.177Z,99.90
2018-06-20T05:19:48.069Z,99.90
2018-06-20T05:23:50.876Z,99.90
2018-06-20T05:27:53.655Z,99.90
2018-06-20T05:31:56.438Z,99.90
2018-06-20T05:35:59.225Z,99.90
2018-06-20T05:40:02.079Z,99.90
2018-06-20T05:44:05.225Z,99.90
2018-06-20T05:48:08.020Z,99.90
2018-06-20T05:52:10.803Z,99.90
2018-06-20T05:56:13.572Z,99.90
2018-06-20T06:00:16.354Z,99.90
2018-06-20T06:04:19.184Z,99.60
2018-06-20T06:08:22.011Z,99.80
2018-06-20T06:12:24.859Z,99.50
2018-06-20T06:16:27.656Z,98.80
2018-06-20T06:20:30.468Z,98.00
2018-06-20T06:24:33.342Z,97.70
2018-06-20T06:28:36.112Z,98.10
2018-06-20T06:32:39.043Z,98.60
2018-06-20T06:36:41.850Z,98.70
2018-06-20T06:40:44.760Z,98.90
2018-06-20T06:44:47.659Z,99.30
2018-06-20T06:48:50.442Z,98.80
2018-06-20T06:52:53.329Z,99.00
2018-06-20T06:56:56.141Z,99.10
2018-06-20T07:00:58.924Z,99.20
2018-06-20T07:05:01.842Z,99.50
2018-06-20T07:09:06.810Z,99.40
2018-06-20T07:13:09.687Z,99.20
2018-06-20T07:17:12.471Z,98.70
2018-06-20T07:21:15.503Z,98.40
2018-06-20T07:25:18.280Z,98.20
2018-06-20T07:29:21.094Z,97.80
2018-06-20T07:33:23.812Z,98.30
2018-06-20T07:37:26.614Z,97.40
2018-06-20T07:41:29.464Z,97.60
2018-06-20T07:45:32.296Z,97.50
2018-06-20T07:49:35.117Z,96.80
2018-06-20T07:53:37.955Z,96.80
2018-06-20T07:57:41.447Z,97.10
2018-06-20T08:02:01.485Z,96.20
2018-06-20T08:06:10.089Z,95.50
2018-06-20T08:10:18.385Z,96.00
2018-06-20T08:14:26.895Z,95.20
2018-06-20T08:18:35.477Z,95.90
2018-06-20T08:22:38.258Z,96.40
2018-06-20T08:26:41.132Z,96.80
2018-06-20T08:30:43.947Z,96.90
2018-06-20T08:34:46.678Z,96.80
2018-06-20T08:38:50.172Z,96.80
2018-06-20T08:42:52.905Z,95.50
2018-06-20T08:46:55.655Z,95.20
2018-06-20T08:50:58.461Z,95.60
2018-06-20T08:55:01.217Z,95.90
2018-06-20T08:59:04.055Z,95.30
2018-06-20T09:03:06.854Z,95.00
2018-06-20T09:07:15.413Z,94.40
2018-06-20T09:11:23.961Z,93.30
2018-06-20T09:15:32.355Z,94.30
2018-06-20T09:19:40.843Z,94.90
2018-06-20T09:23:43.653Z,95.50
2018-06-20T09:27:46.689Z,95.80
2018-06-20T09:31:49.499Z,95.20
2018-06-20T09:35:52.367Z,94.70
2018-06-20T09:39:55.189Z,93.40
2018-06-20T09:43:58.198Z,92.30
2018-06-20T09:48:01.027Z,91.90
2018-06-20T09:52:03.906Z,91.30
2018-06-20T09:56:06.704Z,91.40
2018-06-20T10:00:15.088Z,91.80
2018-06-20T10:04:23.557Z,89.80
2018-06-20T10:08:31.999Z,89.70
2018-06-20T10:12:40.471Z,90.20
2018-06-20T10:16:43.277Z,90.70
2018-06-20T10:20:46.169Z,91.40
2018-06-20T10:24:49.064Z,91.80
2018-06-20T10:28:52.416Z,90.90
2018-06-20T10:32:55.304Z,88.80
2018-06-20T10:36:58.159Z,90.40
2018-06-20T10:41:07.580Z,87.50
2018-06-20T10:49:19.211Z,88.30
2018-06-20T10:53:22.133Z,86.20
2018-06-20T10:57:30.575Z,86.10
2018-06-20T11:01:39.151Z,85.70
2018-06-20T11:05:47.809Z,84.50
2018-06-20T11:09:56.291Z,83.90
2018-06-20T11:13:59.160Z,82.10
2018-06-20T11:18:02.153Z,82.10
2018-06-20T11:22:05.142Z,83.90
2018-06-20T11:26:08.033Z,83.70
2018-06-20T11:30:10.901Z,82.70
2018-06-20T11:34:13.732Z,83.90
2018-06-20T11:38:16.588Z,84.70
2018-06-20T11:42:19.437Z,85.50
2018-06-20T11:46:27.969Z,85.60
2018-06-20T11:50:30.802Z,85.30
2018-06-20T11:54:33.617Z,83.70
2018-06-20T11:58:42.220Z,83.90
2018-06-20T12:02:51.253Z,86.70
2018-06-20T12:06:59.714Z,86.50
2018-06-20T12:11:08.181Z,83.90
2018-06-20T12:15:16.420Z,83.40
2018-06-20T12:19:24.975Z,84.60
2018-06-20T12:23:33.425Z,84.50
2018-06-20T12:27:42.083Z,82.80
2018-06-20T12:31:50.586Z,79.70
2018-06-20T12:35:59.064Z,79.50
2018-06-20T12:40:09.592Z,83.20
2018-06-20T12:44:18.123Z,81.50
2018-06-20T12:48:21.028Z,80.30
2018-06-20T12:52:23.808Z,80.40
2018-06-20T12:56:26.620Z,81.60
2018-06-20T13:00:29.472Z,80.30
2018-06-20T13:04:32.274Z,81.20
2018-06-20T13:08:35.185Z,79.40
2018-06-20T13:12:38.079Z,78.80
2018-06-20T13:16:41.637Z,79.10
2018-06-20T13:20:44.512Z,78.30
2018-06-20T13:24:47.336Z,78.20
2018-06-20T13:28:50.362Z,77.40
2018-06-20T13:32:58.818Z,78.40
2018-06-20T13:37:07.343Z,75.80
2018-06-20T13:41:15.820Z,76.40
2018-06-20T13:45:24.307Z,76.60
2018-06-20T13:49:27.101Z,77.50
2018-06-20T13:53:29.920Z,77.50
2018-06-20T13:57:32.744Z,76.30
2018-06-20T14:01:35.710Z,77.80
2018-06-20T14:05:38.542Z,78.60
2018-06-20T14:09:42.452Z,76.90
2018-06-20T14:13:45.735Z,77.50
2018-06-20T14:17:49.558Z,76.20
2018-06-20T14:21:52.594Z,77.10
2018-06-20T14:25:55.581Z,78.00
2018-06-20T14:29:58.555Z,78.80
2018-06-20T14:38:16.116Z,75.70
2018-06-20T14:42:24.948Z,75.40
2018-06-20T14:46:30.255Z,77.40
2018-06-20T14:50:33.332Z,76.20
2018-06-20T14:54:36.532Z,73.70
2018-06-20T14:58:39.462Z,74.10
2018-06-20T15:02:42.319Z,74.90
2018-06-20T15:06:46.010Z,74.10
2018-06-20T15:10:48.997Z,75.20
2018-06-20T15:14:51.996Z,76.60
2018-06-20T15:18:54.933Z,76.30
2018-06-20T15:22:57.849Z,74.00
2018-06-20T15:27:06.395Z,74.20
2018-06-20T15:31:15.105Z,74.60
2018-06-20T15:35:23.719Z,73.60
2018-06-20T15:39:26.535Z,75.60
2018-06-20T15:43:29.494Z,76.10
2018-06-20T15:47:33.393Z,73.70
2018-06-20T15:51:36.224Z,74.20
2018-06-20T15:55:39.077Z,75.70
2018-06-20T15:59:43.133Z,75.60
2018-06-20T16:03:45.943Z,76.00
2018-06-20T16:07:49.033Z,76.70
2018-06-20T16:11:52.102Z,75.40
2018-06-20T16:15:55.655Z,75.90
2018-06-20T16:20:04.273Z,75.70
2018-06-20T16:24:12.772Z,75.00
2018-06-20T16:28:21.386Z,75.30
2018-06-20T16:32:25.307Z,73.40
2018-06-20T16:36:28.602Z,74.60
2018-06-20T16:40:31.632Z,73.90
2018-06-20T16:44:34.633Z,73.80
2018-06-20T16:48:37.661Z,73.10
2018-06-20T16:52:40.798Z,73.50
2018-06-20T16:56:43.831Z,73.50
2018-06-20T17:00:47.136Z,73.30
2018-06-20T17:04:50.140Z,71.00
2018-06-20T17:08:53.019Z,70.30
2018-06-20T17:13:01.490Z,71.20
2018-06-20T17:17:09.968Z,71.40
2018-06-20T17:21:18.619Z,73.40
2018-06-20T17:25:30.855Z,72.70
2018-06-20T17:29:33.681Z,74.20
2018-06-20T17:33:36.671Z,72.10
2018-06-20T17:37:39.744Z,73.20
2018-06-20T17:41:42.656Z,75.40
2018-06-20T17:45:45.632Z,73.10
2018-06-20T17:49:48.550Z,74.70
2018-06-20T17:53:51.396Z,74.60
2018-06-20T17:57:54.273Z,76.60
2018-06-20T18:01:57.334Z,77.10
2018-06-20T18:06:05.782Z,76.20
2018-06-20T18:14:22.642Z,76.70
2018-06-20T18:18:25.572Z,76.80
2018-06-20T18:22:28.600Z,76.60
2018-06-20T18:26:31.490Z,77.20
2018-06-20T18:30:34.481Z,79.30
2018-06-20T18:34:37.829Z,79.90
2018-06-20T18:38:40.655Z,80.10
2018-06-20T18:42:43.505Z,81.30
2018-06-20T18:46:46.550Z,80.10
2018-06-20T18:50:50.385Z,80.40
2018-06-20T18:54:53.343Z,81.80
2018-06-20T18:59:02.085Z,83.00
2018-06-20T19:03:10.553Z,83.90
2018-06-20T19:07:18.855Z,84.10
2018-06-20T19:11:21.826Z,85.40
2018-06-20T19:15:24.870Z,86.40
2018-06-20T19:19:27.870Z,87.40
2018-06-20T19:23:31.006Z,88.80
2018-06-20T19:27:34.100Z,89.00
2018-06-20T19:31:36.939Z,89.80
2018-06-20T19:35:39.776Z,90.00
2018-06-20T19:39:48.282Z,90.20
2018-06-20T19:43:56.742Z,90.40
2018-06-20T19:47:59.623Z,90.50
2018-06-20T19:52:02.813Z,90.60
2018-06-20T19:56:05.755Z,90.80
2018-06-20T20:00:09.463Z,91.00
2018-06-20T20:04:12.399Z,91.20
2018-06-20T20:08:15.333Z,91.40
2018-06-20T20:12:19.161Z,91.60
2018-06-20T20:16:21.983Z,92.50
2018-06-20T20:20:24.758Z,92.50
2018-06-20T20:24:27.649Z,93.30
2018-06-20T20:28:30.498Z,92.00
2018-06-20T20:32:33.394Z,92.60
2018-06-20T20:36:36.325Z,92.80
2018-06-20T20:40:40.132Z,92.60
2018-06-20T20:44:43.410Z,92.70
2018-06-20T20:48:46.468Z,93.20
2018-06-20T20:52:49.644Z,93.10
2018-06-20T20:56:52.475Z,93.40
2018-06-20T21:00:55.223Z,93.40
2018-06-20T21:04:58.034Z,93.70
2018-06-20T21:09:00.982Z,93.40
2018-06-20T21:13:03.852Z,93.60
2018-06-20T21:17:06.655Z,93.90
2018-06-20T21:21:09.811Z,94.00
2018-06-20T21:25:12.791Z,93.80
2018-06-20T21:29:15.582Z,93.80
2018-06-20T21:33:18.424Z,94.10
2018-06-20T21:37:21.313Z,94.10
2018-06-20T21:41:24.356Z,94.10
2018-06-20T21:45:27.317Z,94.00
2018-06-20T21:49:30.298Z,94.30
2018-06-20T21:53:33.276Z,94.40
2018-06-20T21:57:36.185Z,94.60
2018-06-20T22:01:39.450Z,95.10
2018-06-20T22:05:42.307Z,95.20
2018-06-20T22:09:45.131Z,95.50
2018-06-20T22:13:47.925Z,95.30
2018-06-20T22:17:50.740Z,95.70
2018-06-20T22:21:53.627Z,95.70
2018-06-20T22:25:56.370Z,95.70
2018-06-20T22:29:59.086Z,96.10
2018-06-20T22:34:01.955Z,96.10
2018-06-20T22:38:04.859Z,96.10
2018-06-20T22:42:07.698Z,96.10
2018-06-20T22:46:10.597Z,96.10
2018-06-20T22:50:13.481Z,96.20
2018-06-20T22:54:16.360Z,96.10
2018-06-20T22:58:19.158Z,96.10
2018-06-20T23:02:22.108Z,96.10
2018-06-20T23:06:25.571Z,96.50
2018-06-20T23:10:28.485Z,96.60
2018-06-20T23:14:31.368Z,96.60
2018-06-20T23:18:34.275Z,97.00
2018-06-20T23:22:37.274Z,97.00
2018-06-20T23:26:40.213Z,96.80
2018-06-20T23:30:43.106Z,96.60
2018-06-20T23:34:45.946Z,97.00
2018-06-20T23:38:48.861Z,97.50
2018-06-20T23:42:51.901Z,97.60
2018-06-20T23:46:54.770Z,97.80
2018-06-20T23:50:57.606Z,97.70
2018-06-20T23:55:00.519Z,97.70
2018-06-20T23:59:03.405Z,97.50
